Airport Name : Christmas Island

Other Name : Christmas Island

ICAO : PLCH

IATA : CXI

FAA :

Latitude : 1.986161

Longitude : -157.349778

Country : Kiribati

Local Date and Time : 30 Nov 2020 09:41

 

TAF (Terminal Aerodrome Forecast)

TAF PLCH 291715Z 2918/3018 09010KT 9999 SCT020 PROB40 TEMPO 2918/3012 09015G25KT

 

METAR (METeorological Aerodrome Report)

PLCH 291900Z 09011G25KT 9999 FEW020 28/21 Q1013

PLCH 291800Z 10011G23KT 9999 FEW020 27/21 Q1012

PLCH 291700Z 09009KT 9999 SCT020 26/22 Q1012

PLCH 291600Z 10009KT 9999 SCT020 25/21 Q1011

To Charter a Jet Click here.